Main page
METAR-TAF:

METAR-TAF

Airports :

Vilhena Airport

Vilhena, Rondônia, Brazil

latitude: 12-42S, longitude: 060-06W, elevation: 612 m

Current weather observation

The report was made 11 hours and 20 minutes ago, at 23:00 UTC
Wind 4 kt from the West/Northwest
Temperature 24°C
Humidity 89%
Pressure 1011 hPa
Visibility 10 km or more
Few clouds at a height of 3300 ft, Cumulonimbus.
thunderstorm in vicinity

METAR: SBVH 132300Z 29004KT 9999 VCTS FEW033CB 24/22 Q1011

Time: 06:20 (10:20 UTC)

Forecast

The report was made 5 hours and 40 minutes ago, at 04:40 UTC
Forecast valid from 14 at 06 UTC to 14 at 18 UTC
Wind 5 kt from the North
Visibility 10 km or more
Few clouds at a height of 2000 ft
Becoming
from 14 at 15 UTC to 14 at 17 UTC
Broken clouds at a height of 3000 ft
Few clouds at a height of 3500 ft, Towering cumulus.

TAF: SBVH 140440Z 1406/1418 35005KT 9999 FEW020 TN22/1411Z TX31/1418Z BECMG 1415/1417 BKN030 FEW035TCU RMK PHC

Weather observations and forecasts of more than 4000 airports (METAR and TAF reports).

The available stations are represented by yellow and red dots on the map.

Hover mouse over dot to see the name of the station.

Then click to see weather observations and forecasts.

To change the map : click on the green buttons with a black cross to zoom in, on the green button with a dash to zoom out, or on the green arrows for adjacent maps.


METAR-TAF: